Time;durP1;ratioP1;P1;durP2;ratioP2;P2;SDS_P1;SDS_P2;PMS_P1;PMS_P2;Temp;Humidity;BMP_temperature;BMP_pressure;BME280_temperature;BME280_humidity;BME280_pressure;Samples;Min_cycle;Max_cycle;Signal;HPM_P1;HPM_P2
2022/01/18 00:00:18;;;;;;;35.95;5.78;;;;;;;-1.26;96.39;102686.59;7400148;19;20014;-71
2022/01/18 00:02:47;;;;;;;34.40;5.40;;;;;;;-1.25;96.55;102696.09;7399527;19;20039;-71
2022/01/18 00:05:16;;;;;;;40.95;6.40;;;;;;;-1.23;96.58;102691.94;7399212;19;20022;-71
2022/01/18 00:07:46;;;;;;;24.83;5.75;;;;;;;-1.20;96.46;102694.69;7397229;19;20015;-72
2022/01/18 00:10:17;;;;;;;36.50;6.38;;;;;;;-1.20;96.54;102708.47;7397334;19;20372;-71
2022/01/18 00:13:08;;;;;;;37.80;5.40;;;;;;;-1.17;96.71;102700.03;7399537;19;20022;-71
2022/01/18 00:15:42;;;;;;;36.28;5.22;;;;;;;-1.18;96.60;102714.56;7399007;19;20018;-71
2022/01/18 00:18:14;;;;;;;;;;;;;;;-1.17;96.55;102711.19;7398858;19;20346;-72
2022/01/18 00:21:11;;;;;;;31.02;5.82;;;;;;;-1.15;96.59;102709.63;7399983;19;19919;-71
2022/01/18 00:23:41;;;;;;;36.08;5.18;;;;;;;-1.15;96.43;102713.84;7399147;19;20045;-72
2022/01/18 00:26:12;;;;;;;36.75;5.60;;;;;;;-1.13;96.47;102713.97;7398105;19;20386;-70
2022/01/18 00:28:42;;;;;;;43.65;6.35;;;;;;;-1.12;96.73;102713.19;7396650;19;20010;-70
2022/01/18 00:34:02;;;;;;;33.55;6.28;;;;;;;-1.09;96.47;102711.63;7396783;19;20017;-70
2022/01/18 00:36:37;;;;;;;42.83;6.57;;;;;;;-1.09;96.43;102716.78;7397812;19;20014;-71
2022/01/18 00:39:07;;;;;;;40.83;5.88;;;;;;;-1.07;96.72;102716.91;7397133;19;20015;-70
2022/01/18 00:41:40;;;;;;;33.90;6.32;;;;;;;-1.08;96.73;102716.00;7398018;19;20023;-70
2022/01/18 00:44:10;;;;;;;32.38;5.53;;;;;;;-1.06;96.72;102726.38;7399117;19;20015;-68
2022/01/18 00:46:39;;;;;;;37.30;5.13;;;;;;;-1.05;96.54;102726.50;7396534;19;20389;-67
2022/01/18 00:49:10;;;;;;;30.25;6.13;;;;;;;-1.03;96.58;102731.75;7397823;19;20022;-68
2022/01/18 00:51:40;;;;;;;42.85;7.35;;;;;;;-1.03;96.47;102730.03;7398155;19;20036;-68
2022/01/18 00:54:13;;;;;;;34.60;6.10;;;;;;;-1.03;96.45;102727.47;7398068;19;20036;-68
2022/01/18 00:56:44;;;;;;;26.80;5.50;;;;;;;-1.04;96.29;102722.22;7396974;19;20014;-67
2022/01/18 00:59:12;;;;;;;36.20;5.50;;;;;;;-1.07;96.26;102733.25;7396128;19;20078;-68
2022/01/18 01:01:41;;;;;;;30.88;5.97;;;;;;;-1.06;96.39;102734.13;7397554;19;20031;-68
2022/01/18 01:04:09;;;;;;;29.27;5.38;;;;;;;-1.07;96.31;102738.41;7397724;19;20027;-67
2022/01/18 01:06:37;;;;;;;31.23;5.45;;;;;;;-1.08;96.47;102744.34;7396498;19;20027;-67
2022/01/18 01:09:06;;;;;;;40.63;5.47;;;;;;;-1.08;96.61;102751.19;7397126;19;20018;-68
2022/01/18 01:11:38;;;;;;;30.52;4.65;;;;;;;-1.09;96.36;102749.41;7397960;19;20018;-69
2022/01/18 01:14:14;;;;;;;36.92;5.82;;;;;;;-1.11;96.79;102746.75;7401229;19;20370;-67
2022/01/18 01:16:53;;;;;;;30.38;4.78;;;;;;;-1.10;96.57;102756.25;7400107;19;20017;-68
2022/01/18 01:36:03;;;;;;;37.40;5.35;;;;;;;-1.19;96.48;102763.44;7394566;19;20011;-68
2022/01/18 01:44:03;;;;;;;31.40;5.25;;;;;;;-1.24;96.84;102765.75;7396229;19;20355;-68
2022/01/18 01:46:35;;;;;;;29.55;6.25;;;;;;;-1.25;96.59;102773.38;7395614;19;20010;-67
2022/01/18 01:49:08;;;;;;;36.90;5.30;;;;;;;-1.26;96.82;102769.91;7396517;19;20044;-68
2022/01/18 01:51:37;;;;;;;28.67;5.43;;;;;;;-1.29;96.73;102768.84;7396037;19;20018;-67
2022/01/18 01:54:08;;;;;;;31.73;5.88;;;;;;;-1.29;96.90;102776.56;7395720;19;20036;-68
2022/01/18 01:56:36;;;;;;;34.90;7.70;;;;;;;-1.29;96.69;102777.44;7395310;19;20040;-68
2022/01/18 01:59:06;;;;;;;36.20;5.13;;;;;;;-1.31;96.83;102777.34;7394480;19;20023;-66
2022/01/18 02:01:44;;;;;;;25.42;5.65;;;;;;;-1.31;96.90;102781.63;7396024;19;20019;-66
2022/01/18 02:04:13;;;;;;;39.03;7.00;;;;;;;-1.33;96.95;102775.50;7395899;19;20018;-67
2022/01/18 02:06:41;;;;;;;36.95;5.95;;;;;;;-1.34;96.87;102768.56;7394189;19;20391;-67
2022/01/18 02:09:10;;;;;;;33.95;5.65;;;;;;;-1.36;96.76;102771.03;7395365;19;20040;-67
2022/01/18 02:11:38;;;;;;;33.35;5.60;;;;;;;-1.37;97.01;102768.38;7395262;19;20018;-67
2022/01/18 02:14:13;;;;;;;31.27;4.93;;;;;;;-1.39;96.83;102767.41;7396976;19;20031;-67
2022/01/18 02:22:08;;;;;;;33.63;4.65;;;;;;;-1.48;96.94;102760.91;7395161;19;20491;-67
2022/01/18 02:24:37;;;;;;;35.67;6.10;;;;;;;-1.50;97.03;102754.78;7395582;19;20031;-68
2022/01/18 02:27:05;;;;;;;33.25;6.07;;;;;;;-1.51;97.19;102747.84;7393812;19;20014;-67
2022/01/18 02:29:34;;;;;;;42.08;6.20;;;;;;;-1.52;97.04;102748.63;7394914;19;20018;-67
2022/01/18 02:32:02;;;;;;;33.72;5.35;;;;;;;-1.53;97.25;102749.44;7394705;19;20026;-67
2022/01/18 02:34:30;;;;;;;31.73;4.97;;;;;;;-1.54;97.09;102742.53;7393132;19;20027;-68
2022/01/18 02:36:59;;;;;;;37.85;6.50;;;;;;;-1.55;97.39;102734.72;7394335;19;20023;-67
2022/01/18 02:39:30;;;;;;;37.30;5.88;;;;;;;-1.57;97.40;102729.44;7393162;19;20074;-67
2022/01/18 02:42:01;;;;;;;27.50;5.63;;;;;;;-1.57;97.25;102739.75;7395037;19;20026;-68
2022/01/18 02:44:31;;;;;;;32.60;5.68;;;;;;;-1.59;97.21;102735.31;7394071;19;20479;-67
2022/01/18 02:47:00;;;;;;;33.92;5.18;;;;;;;-1.59;97.28;102735.31;7392779;19;20398;-67
2022/01/18 02:49:29;;;;;;;28.92;5.47;;;;;;;-1.61;97.31;102735.22;7393922;19;20500;-67
2022/01/18 02:51:58;;;;;;;33.40;5.93;;;;;;;-1.60;97.41;102743.84;7398540;19;20018;-67
2022/01/18 02:54:29;;;;;;;36.92;5.78;;;;;;;-1.62;97.58;102754.03;7401647;19;20019;-67
2022/01/18 02:57:03;;;;;;;37.53;6.05;;;;;;;-1.62;97.51;102756.59;7400696;19;20018;-67
2022/01/18 02:59:36;;;;;;;36.95;6.20;;;;;;;-1.63;97.80;102754.84;7400464;19;20018;-67
2022/01/18 03:05:00;;;;;;;40.60;5.60;;;;;;;-1.65;97.69;102767.59;7401892;19;20014;-67
2022/01/18 03:07:28;;;;;;;34.00;5.53;;;;;;;-1.66;97.64;102765.81;7399446;19;20019;-67
2022/01/18 03:09:59;;;;;;;32.38;4.68;;;;;;;-1.69;97.50;102762.19;7401456;19;20031;-67
2022/01/18 03:12:28;;;;;;;40.90;6.28;;;;;;;-1.67;97.56;102752.84;7401538;19;20027;-67
2022/01/18 03:14:56;;;;;;;34.13;5.97;;;;;;;-1.68;97.69;102748.50;7401191;19;20014;-69
2022/01/18 03:17:24;;;;;;;33.10;5.80;;;;;;;-1.70;97.70;102747.53;7399120;19;20019;-69
2022/01/18 03:19:52;;;;;;;33.20;5.45;;;;;;;-1.70;97.77;102762.97;7401069;19;20106;-69
2022/01/18 03:22:21;;;;;;;42.22;5.90;;;;;;;-1.71;97.66;102774.06;7402169;19;20052;-67
2022/01/18 03:24:59;;;;;;;37.22;5.47;;;;;;;-1.72;97.96;102769.72;7402401;19;20019;-67
2022/01/18 03:30:13;;;;;;;40.67;6.23;;;;;;;-1.75;97.72;102774.69;7400662;19;20011;-67
2022/01/18 03:32:41;;;;;;;37.25;5.40;;;;;;;-1.76;97.82;102780.63;7399920;19;20014;-68
2022/01/18 03:35:11;;;;;;;37.75;5.30;;;;;;;-1.75;97.68;102790.13;7400504;19;20019;-67
2022/01/18 03:37:39;;;;;;;29.80;6.13;;;;;;;-1.76;97.71;102781.50;7398098;19;20031;-68
2022/01/18 03:40:09;;;;;;;26.98;5.70;;;;;;;-1.81;97.78;102777.75;7397544;19;20447;-68
2022/01/18 03:42:45;;;;;;;30.20;5.55;;;;;;;-1.76;97.77;102784.06;7400096;19;20035;-68
2022/01/18 03:45:16;;;;;;;31.83;4.75;;;;;;;-1.75;97.75;102785.84;7400394;19;20010;-68
2022/01/18 03:47:46;;;;;;;36.65;6.10;;;;;;;-1.78;98.14;102779.63;7397871;19;20044;-68
2022/01/18 03:50:16;;;;;;;33.78;5.80;;;;;;;-1.73;98.17;102792.00;7399444;19;20367;-67
2022/01/18 03:52:46;;;;;;;40.65;6.75;;;;;;;-1.71;98.31;102792.97;7400117;19;20035;-69
2022/01/18 03:55:17;;;;;;;40.88;5.20;;;;;;;-1.67;97.98;102789.81;7399658;19;20014;-67
2022/01/18 03:57:48;;;;;;;33.17;5.88;;;;;;;-1.65;98.24;102783.03;7397759;19;20022;-68
2022/01/18 04:00:18;;;;;;;26.83;5.45;;;;;;;-1.59;98.16;102787.69;7397914;19;20027;-68
2022/01/18 04:02:47;;;;;;;29.77;4.93;;;;;;;-1.56;98.03;102790.44;7399424;19;20015;-67
2022/01/18 04:05:16;;;;;;;27.30;5.13;;;;;;;-1.51;98.04;102801.03;7399187;19;20036;-68
2022/01/18 04:07:45;;;;;;;26.45;4.82;;;;;;;-1.48;98.13;102807.25;7396810;19;20479;-67
2022/01/18 04:10:14;;;;;;;25.63;4.22;;;;;;;-1.45;97.96;102808.22;7398652;19;20361;-68
2022/01/18 04:12:42;;;;;;;37.90;5.72;;;;;;;-1.43;97.77;102804.06;7399062;19;20019;-67
2022/01/18 04:15:15;;;;;;;34.95;4.63;;;;;;;-1.41;97.95;102803.34;7398864;19;20028;-68
2022/01/18 04:18:07;;;;;;;27.60;5.63;;;;;;;-1.40;97.53;102799.09;7396795;19;20018;-69
2022/01/18 04:26:02;;;;;;;30.58;4.95;;;;;;;-1.34;97.44;102790.06;7398411;19;20018;-68
2022/01/18 04:28:37;;;;;;;39.58;6.35;;;;;;;-1.31;97.49;102794.50;7398931;19;20015;-68
2022/01/18 04:31:09;;;;;;;38.65;4.95;;;;;;;-1.31;97.35;102800.53;7398617;19;20027;-68
2022/01/18 04:33:38;;;;;;;32.95;5.82;;;;;;;-1.29;97.19;102798.03;7396919;19;20010;-67
2022/01/18 04:36:07;;;;;;;51.85;19.40;;;;;;;-1.28;97.14;102806.69;7397717;19;20025;-68
2022/01/18 04:38:37;;;;;;;70.70;25.35;;;;;;;-1.32;97.23;102803.91;7397607;19;20385;-69
2022/01/18 04:41:09;;;;;;;43.17;12.25;;;;;;;-1.24;96.95;102816.38;7397342;19;20496;-68
2022/01/18 04:43:50;;;;;;;44.58;9.63;;;;;;;-1.22;97.22;102828.53;7398211;19;20015;-67
2022/01/18 04:49:03;;;;;;;28.00;5.72;;;;;;;-1.16;97.21;102833.19;7398127;19;20214;-68
2022/01/18 04:51:31;;;;;;;33.50;6.22;;;;;;;-1.12;97.27;102835.13;7397658;19;20032;-67
2022/01/18 04:54:01;;;;;;;37.38;4.95;;;;;;;-1.08;97.10;102838.78;7395404;19;20019;-68
2022/01/18 04:57:51;;;;;;;30.70;5.80;;;;;;;-1.06;96.81;102832.94;7397113;19;20044;-68
2022/01/18 04:59:23;;;;;;;30.30;7.18;;;;;;;-1.01;97.10;102828.94;7396923;19;20487;-68
2022/01/18 05:01:55;;;;;;;36.00;5.20;;;;;;;-0.98;96.91;102842.00;7397227;19;20371;-68
2022/01/18 05:04:23;;;;;;;34.47;5.07;;;;;;;-0.94;97.26;102842.19;7397563;19;20018;-68
2022/01/18 05:06:57;;;;;;;28.75;5.40;;;;;;;-0.91;97.29;102843.25;7395849;19;20022;-68
2022/01/18 05:09:25;;;;;;;41.67;5.80;;;;;;;-0.89;97.14;102846.81;7397417;19;20053;-68
2022/01/18 05:12:02;;;;;;;33.60;4.93;;;;;;;-0.86;97.48;102841.84;7396896;19;20019;-68
2022/01/18 05:14:32;;;;;;;28.25;5.18;;;;;;;-0.82;97.26;102843.78;7395623;19;20019;-69
2022/01/18 05:17:22;;;;;;;20.70;4.20;;;;;;;-0.78;97.22;102841.38;7395630;19;20486;-68
2022/01/18 05:20:23;;;;;;;30.38;4.75;;;;;;;-0.78;97.12;102833.66;7395849;19;20021;-68
2022/01/18 05:23:03;;;;;;;26.17;4.18;;;;;;;-0.71;97.15;102841.88;7395980;19;20018;-66
2022/01/18 05:25:31;;;;;;;28.13;4.38;;;;;;;-0.66;97.00;102847.25;7396559;19;20022;-67
2022/01/18 05:28:00;;;;;;;23.80;4.32;;;;;;;-0.64;96.68;102848.25;7394628;19;20014;-68
2022/01/18 05:30:29;;;;;;;26.15;4.30;;;;;;;-0.60;96.62;102860.50;7396213;19;20022;-68
2022/01/18 05:33:01;;;;;;;43.20;6.57;;;;;;;-0.57;96.25;102855.56;7395027;19;20006;-67
2022/01/18 05:35:30;;;;;;;26.13;5.78;;;;;;;-0.50;96.42;102859.38;7395660;19;20020;-68
2022/01/18 05:37:58;;;;;;;29.15;4.93;;;;;;;-0.47;96.24;102849.22;7394078;19;20052;-68
2022/01/18 05:40:26;;;;;;;28.33;5.43;;;;;;;-0.43;96.31;102858.94;7395052;19;20041;-67
2022/01/18 05:42:55;;;;;;;26.75;5.20;;;;;;;-0.39;96.21;102854.81;7395267;19;20027;-67
2022/01/18 05:45:23;;;;;;;23.55;4.82;;;;;;;-0.35;96.35;102854.22;7395597;19;20010;-67
2022/01/18 05:47:51;;;;;;;23.00;4.88;;;;;;;-0.33;96.20;102857.75;7393249;19;20362;-67
2022/01/18 05:50:22;;;;;;;34.10;6.68;;;;;;;-0.29;95.99;102853.66;7395175;19;20015;-66
2022/01/18 05:52:50;;;;;;;32.10;4.82;;;;;;;-0.28;95.93;102856.31;7397418;19;20024;-67
2022/01/18 05:55:19;;;;;;;22.13;4.45;;;;;;;-0.26;95.64;102859.88;7398500;19;20010;-68
2022/01/18 05:57:47;;;;;;;20.25;4.80;;;;;;;-0.23;96.05;102856.59;7394815;19;20018;-68
2022/01/18 06:00:22;;;;;;;16.77;3.67;;;;;;;-0.21;95.78;102865.31;7393398;19;20038;-68
2022/01/18 06:03:00;;;;;;;24.67;3.58;;;;;;;-0.19;95.72;102877.50;7395292;19;20031;-68
2022/01/18 06:08:13;;;;;;;28.80;4.78;;;;;;;-0.13;95.35;102874.34;7394174;19;20014;-68
2022/01/18 06:10:42;;;;;;;23.08;4.55;;;;;;;-0.13;95.28;102863.16;7393402;19;20038;-68
2022/01/18 06:13:10;;;;;;;24.95;4.45;;;;;;;-0.09;95.02;102872.84;7394435;19;20027;-68
2022/01/18 06:15:38;;;;;;;21.88;4.53;;;;;;;-0.07;95.12;102884.16;7394106;19;20007;-67
2022/01/18 06:18:07;;;;;;;27.35;4.53;;;;;;;-0.04;95.53;102886.88;7392378;19;20026;-70
2022/01/18 06:20:40;;;;;;;23.00;4.25;;;;;;;-0.03;95.30;102893.84;7392979;19;20036;-68
2022/01/18 06:23:08;;;;;;;25.77;4.47;;;;;;;0.02;95.64;102888.94;7394760;19;20022;-66
2022/01/18 06:25:36;;;;;;;30.00;4.78;;;;;;;0.03;95.22;102882.97;7393704;19;20019;-67
2022/01/18 06:28:05;;;;;;;25.20;4.55;;;;;;;0.05;95.08;102889.09;7399050;19;20031;-67
2022/01/18 06:30:33;;;;;;;23.73;4.78;;;;;;;0.07;94.78;102888.38;7402043;19;20015;-69
2022/01/18 06:33:02;;;;;;;27.58;4.85;;;;;;;0.10;94.81;102887.66;7401429;19;20014;-68
2022/01/18 06:35:30;;;;;;;24.40;4.43;;;;;;;0.12;95.10;102889.53;7402150;19;20015;-67
2022/01/18 06:38:01;;;;;;;21.50;4.55;;;;;;;0.14;94.34;102894.78;7397510;19;20358;-68
2022/01/18 06:40:29;;;;;;;22.80;4.82;;;;;;;0.17;95.02;102891.50;7400772;19;20028;-67
2022/01/18 06:42:57;;;;;;;22.67;4.05;;;;;;;0.18;94.61;102899.31;7401275;19;20014;-67
2022/01/18 06:45:25;;;;;;;27.00;4.25;;;;;;;0.21;94.16;102899.47;7401474;19;20019;-67
2022/01/18 06:47:54;;;;;;;20.63;3.90;;;;;;;0.21;94.75;102890.84;7398394;19;20019;-67
2022/01/18 06:50:22;;;;;;;23.55;4.80;;;;;;;0.26;94.81;102907.50;7400693;19;20015;-67
2022/01/18 06:52:50;;;;;;;26.98;5.40;;;;;;;0.29;94.45;102911.13;7401436;19;20019;-68
2022/01/18 06:55:21;;;;;;;35.70;4.55;;;;;;;0.31;94.41;102916.38;7401376;19;20011;-68
2022/01/18 06:57:49;;;;;;;21.10;3.45;;;;;;;0.34;94.69;102915.66;7399069;19;20026;-67
2022/01/18 07:00:18;;;;;;;19.58;3.83;;;;;;;0.34;93.90;102916.53;7400159;19;20022;-68
2022/01/18 07:02:46;;;;;;;24.85;4.47;;;;;;;0.37;93.82;102918.38;7401411;19;20023;-68
2022/01/18 07:05:15;;;;;;;24.90;4.38;;;;;;;0.39;93.82;102917.72;7401163;19;20041;-68
2022/01/18 07:07:47;;;;;;;18.52;3.08;;;;;;;0.41;93.90;102915.19;7398377;19;20026;-68
2022/01/18 07:10:15;;;;;;;25.73;4.43;;;;;;;0.44;94.18;102934.34;7401183;19;20086;-68
2022/01/18 07:12:46;;;;;;;28.08;3.70;;;;;;;0.45;93.83;102932.63;7400689;19;20014;-66
2022/01/18 07:15:14;;;;;;;20.70;4.35;;;;;;;0.49;94.13;102944.91;7401841;19;20027;-69
2022/01/18 07:17:42;;;;;;;24.60;3.53;;;;;;;0.52;94.03;102939.91;7398178;19;20018;-69
2022/01/18 07:20:11;;;;;;;26.20;4.03;;;;;;;0.56;93.82;102935.81;7398830;19;20497;-67
2022/01/18 07:22:42;;;;;;;19.95;3.75;;;;;;;0.58;93.53;102950.59;7400020;19;20014;-68
2022/01/18 07:25:12;;;;;;;22.30;4.03;;;;;;;0.60;94.30;102948.09;7399317;19;20017;-68
2022/01/18 07:27:41;;;;;;;24.42;3.88;;;;;;;0.62;94.20;102951.63;7397251;19;20074;-68
2022/01/18 07:30:13;;;;;;;18.13;3.88;;;;;;;0.63;93.85;102956.91;7399204;19;20027;-68
2022/01/18 07:32:41;;;;;;;21.05;3.42;;;;;;;0.63;94.50;102948.25;7400396;19;20458;-68
2022/01/18 07:35:12;;;;;;;23.92;3.85;;;;;;;0.69;94.65;102958.91;7397396;19;20006;-68
2022/01/18 07:37:40;;;;;;;21.00;3.75;;;;;;;0.72;94.14;102953.94;7397653;19;20018;-68
2022/01/18 07:40:10;;;;;;;18.27;4.00;;;;;;;0.74;94.12;102957.47;7397927;19;20398;-67
2022/01/18 07:42:38;;;;;;;18.08;4.20;;;;;;;0.77;93.77;102957.66;7399984;19;20014;-67
2022/01/18 07:45:07;;;;;;;26.65;6.25;;;;;;;0.80;94.62;102969.84;7399946;19;20014;-68
2022/01/18 07:47:38;;;;;;;21.05;4.60;;;;;;;0.83;94.81;102963.97;7397800;19;20031;-68
2022/01/18 07:50:08;;;;;;;28.75;4.55;;;;;;;0.85;94.42;102964.91;7400953;19;20018;-68
2022/01/18 07:52:36;;;;;;;24.45;5.13;;;;;;;0.87;94.50;102969.34;7399708;19;20022;-68
2022/01/18 07:55:05;;;;;;;18.80;3.30;;;;;;;0.89;94.47;102970.34;7398970;19;20049;-68
2022/01/18 07:57:34;;;;;;;17.50;3.78;;;;;;;0.89;94.55;102969.47;7397495;19;20025;-67
2022/01/18 08:00:02;;;;;;;22.75;4.05;;;;;;;0.97;94.64;102987.16;7398731;19;20026;-68
2022/01/18 08:02:31;;;;;;;21.35;4.45;;;;;;;0.99;94.35;102989.81;7398884;19;20014;-68
2022/01/18 08:05:02;;;;;;;23.23;4.85;;;;;;;1.01;94.38;102993.38;7398399;19;20053;-67
2022/01/18 08:07:30;;;;;;;24.90;4.03;;;;;;;1.03;94.66;103002.09;7396915;19;20031;-68
2022/01/18 08:09:59;;;;;;;15.38;3.63;;;;;;;1.08;94.12;103007.53;7398887;19;20018;-68
2022/01/18 08:12:27;;;;;;;19.42;3.95;;;;;;;1.09;94.88;103005.03;7398627;19;20018;-68
2022/01/18 08:15:01;;;;;;;17.20;3.10;;;;;;;1.13;94.68;103013.84;7397483;19;20022;-67
2022/01/18 08:17:30;;;;;;;15.73;3.63;;;;;;;1.15;94.75;103009.66;7395919;19;20035;-68
2022/01/18 08:19:59;;;;;;;16.20;4.53;;;;;;;1.19;95.10;103021.00;7400716;19;20010;-67
2022/01/18 08:22:30;;;;;;;23.38;6.70;;;;;;;1.20;94.28;103015.03;7397844;19;20018;-68
2022/01/18 08:24:58;;;;;;;14.68;5.03;;;;;;;1.23;94.06;103017.81;7398458;19;20011;-69
2022/01/18 08:27:27;;;;;;;20.80;5.20;;;;;;;1.27;94.00;103022.31;7396697;19;20019;-67
2022/01/18 08:29:55;;;;;;;22.70;4.65;;;;;;;1.28;94.09;103029.28;7397583;19;20015;-66
2022/01/18 08:32:23;;;;;;;19.40;4.18;;;;;;;1.30;93.45;103033.72;7397611;19;20019;-71
2022/01/18 08:34:51;;;;;;;23.13;4.68;;;;;;;1.33;93.72;103033.00;7395242;19;20028;-64
2022/01/18 08:37:19;;;;;;;24.98;4.13;;;;;;;1.30;93.86;103018.22;7395529;19;20022;-64
2022/01/18 08:39:50;;;;;;;27.05;4.25;;;;;;;1.36;93.48;103027.97;7397443;19;20517;-65
2022/01/18 08:42:18;;;;;;;18.38;3.80;;;;;;;1.39;92.88;103033.34;7398178;19;20014;-64
2022/01/18 08:44:47;;;;;;;24.17;3.92;;;;;;;1.42;93.32;103035.19;7397678;19;20031;-65
2022/01/18 08:47:16;;;;;;;20.10;3.72;;;;;;;1.47;94.04;103031.16;7396319;19;20019;-65
2022/01/18 08:49:45;;;;;;;18.65;3.88;;;;;;;1.44;93.07;103020.63;7395214;19;20516;-64
2022/01/18 08:52:14;;;;;;;18.63;4.82;;;;;;;1.52;93.92;103021.03;7397095;19;20496;-64
2022/01/18 08:54:43;;;;;;;21.85;6.20;;;;;;;1.55;93.75;103026.38;7397675;19;20044;-66
2022/01/18 08:57:15;;;;;;;22.33;5.88;;;;;;;1.58;93.75;103031.69;7396325;19;20029;-65
2022/01/18 08:59:45;;;;;;;19.73;4.40;;;;;;;1.62;93.17;103037.13;7397680;19;20019;-67
2022/01/18 09:02:15;;;;;;;21.77;5.40;;;;;;;1.66;92.98;103034.69;7396700;19;20025;-66
2022/01/18 09:04:43;;;;;;;26.40;4.50;;;;;;;1.68;92.81;103036.56;7396815;19;20021;-66
2022/01/18 09:07:12;;;;;;;23.10;5.78;;;;;;;1.72;92.89;103042.75;7395269;19;20027;-67
2022/01/18 09:09:44;;;;;;;24.80;4.72;;;;;;;1.74;92.60;103048.91;7396903;19;20024;-65
2022/01/18 09:12:17;;;;;;;21.10;4.47;;;;;;;1.77;92.34;103043.91;7397334;19;20044;-66
2022/01/18 09:14:45;;;;;;;18.50;3.63;;;;;;;1.81;91.75;103042.34;7396716;19;20035;-66
2022/01/18 09:17:14;;;;;;;18.38;5.15;;;;;;;1.86;93.87;103043.47;7395012;19;20018;-64
2022/01/18 09:19:42;;;;;;;16.55;4.10;;;;;;;1.90;92.67;103037.66;7396464;19;20018;-65
2022/01/18 09:22:10;;;;;;;21.92;7.05;;;;;;;1.95;93.49;103038.78;7394854;19;20015;-65
2022/01/18 09:24:38;;;;;;;27.88;8.35;;;;;;;2.00;93.35;103049.34;7396400;19;20007;-65
2022/01/18 09:27:07;;;;;;;22.92;5.88;;;;;;;2.05;94.14;103048.78;7395319;19;20022;-66
2022/01/18 09:29:39;;;;;;;17.55;4.57;;;;;;;2.06;92.29;103055.75;7395885;19;20018;-65
2022/01/18 09:32:08;;;;;;;24.50;4.32;;;;;;;2.10;90.93;103057.66;7395776;19;20512;-67
2022/01/18 09:34:37;;;;;;;18.45;4.07;;;;;;;2.14;91.41;103063.91;7394580;19;20023;-67
2022/01/18 09:37:05;;;;;;;14.48;3.22;;;;;;;2.18;92.22;103077.91;7394828;19;20010;-67
2022/01/18 09:39:33;;;;;;;20.05;3.45;;;;;;;2.21;91.47;103066.00;7395739;19;20106;-65
2022/01/18 09:42:05;;;;;;;20.70;3.47;;;;;;;2.22;90.05;103072.06;7394112;19;20031;-66
2022/01/18 09:44:34;;;;;;;21.67;4.32;;;;;;;2.27;90.76;103070.56;7396430;19;20010;-67
2022/01/18 09:47:06;;;;;;;15.93;4.28;;;;;;;2.24;91.23;103066.13;7394681;19;20018;-67
2022/01/18 09:49:34;;;;;;;15.95;3.45;;;;;;;2.32;92.06;103076.00;7396120;19;20027;-67
2022/01/18 09:52:03;;;;;;;14.57;2.97;;;;;;;2.36;91.67;103075.31;7395562;19;20027;-69
2022/01/18 09:54:31;;;;;;;21.55;3.70;;;;;;;2.41;92.49;103066.06;7395328;19;20011;-67
2022/01/18 09:56:59;;;;;;;20.60;3.72;;;;;;;2.44;91.40;103072.31;7394615;19;20014;-65
2022/01/18 09:59:27;;;;;;;20.58;4.88;;;;;;;2.48;92.57;103070.75;7395658;19;20010;-64
2022/01/18 10:01:56;;;;;;;20.25;5.78;;;;;;;2.52;92.48;103077.84;7393129;19;20031;-65
2022/01/18 10:04:31;;;;;;;20.92;5.38;;;;;;;2.58;92.46;103066.91;7394660;19;20031;-65
2022/01/18 10:07:00;;;;;;;15.60;3.83;;;;;;;2.62;91.93;103068.84;7394339;19;20026;-65
2022/01/18 10:09:29;;;;;;;11.18;2.90;;;;;;;2.67;92.20;103069.06;7394975;19;20033;-65
2022/01/18 10:12:07;;;;;;;14.68;3.13;;;;;;;2.72;91.93;103080.53;7395307;19;20023;-65
2022/01/18 10:14:36;;;;;;;27.70;3.30;;;;;;;2.75;91.18;103080.69;7395165;19;20018;-64
2022/01/18 10:17:05;;;;;;;19.77;3.65;;;;;;;2.80;91.79;103075.72;7393102;19;20448;-65
2022/01/18 10:19:42;;;;;;;19.48;3.35;;;;;;;2.80;91.10;103068.81;7394685;19;20018;-65
2022/01/18 10:22:14;;;;;;;16.02;3.03;;;;;;;2.84;90.68;103068.16;7393592;19;20014;-65
2022/01/18 10:24:44;;;;;;;13.40;2.83;;;;;;;2.87;90.69;103068.31;7396010;19;20010;-65
2022/01/18 10:27:15;;;;;;;21.08;3.47;;;;;;;2.93;90.24;103072.88;7393760;19;20014;-65
2022/01/18 10:29:45;;;;;;;13.68;2.88;;;;;;;2.96;90.83;103067.84;7394721;19;20021;-66
2022/01/18 10:32:21;;;;;;;12.02;2.75;;;;;;;2.99;90.04;103068.00;7394495;19;20019;-66
2022/01/18 10:35:09;;;;;;;18.23;3.15;;;;;;;3.04;91.04;103071.69;7392588;19;20021;-67
2022/01/18 10:37:41;;;;;;;10.55;2.78;;;;;;;3.09;91.47;103077.09;7392531;19;20026;-65
2022/01/18 10:40:15;;;;;;;14.63;3.05;;;;;;;3.14;90.43;103075.59;7394406;19;20014;-64
2022/01/18 10:42:52;;;;;;;;;;;;;;;3.16;86.72;103071.38;7393552;19;20018;-65
2022/01/18 10:45:28;;;;;;;17.38;3.65;;;;;;;3.19;89.70;103057.66;7394167;19;19999;-65
2022/01/18 10:48:04;;;;;;;12.63;3.22;;;;;;;3.25;90.86;103068.31;7392143;19;20022;-65
2022/01/18 10:50:38;;;;;;;17.30;4.30;;;;;;;3.29;90.48;103075.44;7394177;19;20018;-64
2022/01/18 10:53:14;;;;;;;18.23;4.50;;;;;;;3.31;91.24;103059.91;7395014;19;20018;-64
2022/01/18 10:55:44;;;;;;;17.60;5.20;;;;;;;3.39;91.50;103068.97;7394221;19;20396;-64
2022/01/18 10:58:13;;;;;;;17.83;4.13;;;;;;;3.46;91.56;103062.31;7393507;19;20475;-65
2022/01/18 11:00:41;;;;;;;16.58;3.00;;;;;;;3.46;88.47;103063.19;7393275;19;20010;-65
2022/01/18 11:03:10;;;;;;;13.35;2.95;;;;;;;3.49;89.07;103065.94;7394497;19;20011;-65
2022/01/18 11:05:43;;;;;;;15.52;2.58;;;;;;;3.51;88.89;103060.81;7393184;19;20094;-64
2022/01/18 11:08:12;;;;;;;10.77;2.42;;;;;;;3.55;89.64;103060.13;7393572;19;20019;-64
2022/01/18 11:10:50;;;;;;;13.40;2.88;;;;;;;3.56;88.90;103060.22;7392786;19;20037;-64
2022/01/18 11:13:23;;;;;;;13.02;2.38;;;;;;;3.59;89.36;103051.69;7398677;19;20493;-64
2022/01/18 11:16:02;;;;;;;16.58;3.25;;;;;;;3.60;88.22;103056.03;7400756;19;20018;-64
2022/01/18 11:18:36;;;;;;;15.70;3.63;;;;;;;3.62;88.94;103054.41;7401271;19;20010;-62
2022/01/18 11:21:09;;;;;;;11.98;3.05;;;;;;;3.63;89.54;103053.59;7400673;19;20021;-64
2022/01/18 11:23:37;;;;;;;11.02;2.50;;;;;;;3.67;89.28;103067.59;7401641;19;20018;-64
2022/01/18 11:26:06;;;;;;;16.52;3.20;;;;;;;3.68;88.81;103052.06;7399944;19;20019;-65
2022/01/18 11:28:37;;;;;;;15.27;2.92;;;;;;;3.68;87.17;103059.00;7399475;19;20036;-65
2022/01/18 11:31:10;;;;;;;13.98;3.30;;;;;;;3.70;88.90;103071.22;7401522;19;20014;-65
2022/01/18 11:34:01;;;;;;;16.60;3.75;;;;;;;3.72;88.22;103061.78;7401026;19;20019;-64
2022/01/18 11:36:50;;;;;;;13.55;3.05;;;;;;;3.73;87.94;103050.56;7396068;19;20021;-65
2022/01/18 11:39:20;;;;;;;16.52;3.05;;;;;;;3.74;88.21;103048.84;7400023;19;20019;-65
2022/01/18 11:41:49;;;;;;;14.68;3.17;;;;;;;3.77;88.09;103053.28;7399241;19;20040;-66
2022/01/18 11:44:19;;;;;;;10.68;2.90;;;;;;;3.77;86.85;103048.09;7399133;19;20047;-65
2022/01/18 11:46:50;;;;;;;17.30;3.42;;;;;;;3.77;87.66;103049.00;7398669;19;20086;-65
2022/01/18 11:49:22;;;;;;;13.65;3.03;;;;;;;3.79;88.00;103051.66;7399413;19;20483;-65
2022/01/18 11:51:57;;;;;;;9.85;2.78;;;;;;;3.79;87.50;103056.84;7400232;19;20018;-66
2022/01/18 11:54:32;;;;;;;13.93;2.88;;;;;;;3.81;87.31;103055.22;7399981;19;20371;-67
2022/01/18 11:57:01;;;;;;;17.05;2.55;;;;;;;3.82;86.47;103062.19;7397887;19;20019;-66
2022/01/18 11:59:39;;;;;;;16.95;2.53;;;;;;;3.80;87.07;103059.50;7399604;19;20014;-66
2022/01/18 12:02:08;;;;;;;13.38;2.50;;;;;;;3.82;88.06;103059.59;7398386;19;20015;-66
2022/01/18 12:05:18;;;;;;;15.57;3.35;;;;;;;3.84;87.56;103071.81;7398709;19;20498;-65
2022/01/18 12:08:07;;;;;;;14.43;2.90;;;;;;;3.85;87.52;103073.56;7396704;19;20019;-65
2022/01/18 12:10:51;;;;;;;15.82;3.72;;;;;;;3.89;85.97;103066.81;7398762;19;20022;-64
2022/01/18 12:13:44;;;;;;;16.00;2.53;;;;;;;3.89;85.28;103056.41;7398803;19;20019;-65
2022/01/18 12:16:29;;;;;;;10.27;2.42;;;;;;;3.90;87.95;103060.78;7396897;19;20037;-66
2022/01/18 12:19:00;;;;;;;12.32;2.33;;;;;;;3.93;89.19;103066.16;7396446;19;20023;-64
2022/01/18 12:21:30;;;;;;;8.15;2.42;;;;;;;3.97;88.71;103061.94;7397121;19;20377;-66
2022/01/18 12:24:16;;;;;;;15.50;2.85;;;;;;;4.00;88.82;103059.50;7395035;19;20460;-65
2022/01/18 12:26:47;;;;;;;18.52;3.28;;;;;;;4.03;88.16;103057.00;7398041;19;20023;-65